Time;durP1;ratioP1;P1;durP2;ratioP2;P2;SDS_P1;SDS_P2;PMS_P1;PMS_P2;Temp;Humidity;BMP_temperature;BMP_pressure;BME280_temperature;BME280_humidity;BME280_pressure;Samples;Min_cycle;Max_cycle;Signal;HPM_P1;HPM_P2
2022/08/14 00:02:04;;;;;;;1999.90;999.90;;;24.00;21.50;;;;;;5012995;28;20404;-66
2022/08/14 00:04:34;;;;;;;1999.90;999.90;;;24.00;21.60;;;;;;5012833;28;20382;-66
2022/08/14 00:07:00;;;;;;;1999.90;999.90;;;24.00;21.60;;;;;;5012459;28;20574;-66
2022/08/14 00:09:25;;;;;;;1999.90;999.90;;;24.00;21.90;;;;;;5012728;28;20415;-66
2022/08/14 00:11:51;;;;;;;1999.90;999.90;;;24.00;22.00;;;;;;5012752;28;20694;-66
2022/08/14 00:14:17;;;;;;;1999.90;999.90;;;23.90;21.40;;;;;;5012705;28;20181;-66
2022/08/14 00:16:43;;;;;;;1999.90;999.90;;;23.70;21.40;;;;;;5012285;28;20686;-66
2022/08/14 00:19:09;;;;;;;1999.90;999.90;;;23.60;21.70;;;;;;5012643;28;20891;-66
2022/08/14 00:21:35;;;;;;;1999.90;999.90;;;23.40;22.00;;;;;;5012543;28;20180;-66
2022/08/14 00:24:03;;;;;;;1999.90;999.90;;;23.20;22.60;;;;;;5012454;28;20435;-66
2022/08/14 00:26:28;;;;;;;1999.90;999.90;;;22.90;23.40;;;;;;5012269;28;20909;-67
2022/08/14 00:28:54;;;;;;;1999.90;999.90;;;22.90;23.90;;;;;;5012394;28;20470;-66
2022/08/14 00:31:21;;;;;;;1999.90;999.90;;;22.90;24.40;;;;;;5012548;28;20226;-66
2022/08/14 00:33:46;;;;;;;1999.90;999.90;;;22.90;25.00;;;;;;5011990;28;20173;-66
2022/08/14 00:36:12;;;;;;;1999.90;999.90;;;22.80;25.20;;;;;;5011496;28;21011;-66
2022/08/14 00:38:38;;;;;;;1999.90;999.90;;;22.80;25.60;;;;;;5012207;28;20291;-66
2022/08/14 00:41:05;;;;;;;1999.90;999.90;;;22.70;25.70;;;;;;5012170;28;20200;-65
2022/08/14 00:43:33;;;;;;;1999.90;999.90;;;22.60;26.10;;;;;;5012248;28;20602;-66
2022/08/14 00:46:08;;;;;;;1999.90;999.90;;;22.50;26.70;;;;;;5011996;28;20792;-66
2022/08/14 00:48:35;;;;;;;1999.90;999.90;;;22.40;27.30;;;;;;5012207;28;20408;-66
2022/08/14 00:51:02;;;;;;;1999.90;999.90;;;22.50;27.70;;;;;;5012408;28;20433;-66
2022/08/14 00:53:28;;;;;;;1999.90;999.90;;;22.50;28.20;;;;;;5012223;28;20410;-66
2022/08/14 00:55:56;;;;;;;1999.90;999.90;;;22.50;28.60;;;;;;5012084;28;20817;-66
2022/08/14 00:58:32;;;;;;;1999.90;999.90;;;22.50;28.70;;;;;;5011993;28;20240;-66
2022/08/14 01:01:08;;;;;;;1999.90;999.90;;;22.40;28.90;;;;;;5012105;28;20469;-66
2022/08/14 01:03:36;;;;;;;1999.90;999.90;;;22.50;29.50;;;;;;5012323;28;20440;-66
2022/08/14 01:06:02;;;;;;;1999.90;999.90;;;22.50;30.00;;;;;;5011888;28;20476;-66
2022/08/14 01:08:30;;;;;;;1999.90;999.90;;;22.40;30.30;;;;;;5012122;28;20382;-66
2022/08/14 01:10:57;;;;;;;1999.90;999.90;;;22.30;30.70;;;;;;5012000;28;20930;-67
2022/08/14 01:13:35;;;;;;;1999.90;999.90;;;22.30;31.30;;;;;;5012015;28;20374;-66
2022/08/14 01:16:04;;;;;;;1999.90;999.90;;;22.30;31.90;;;;;;5011838;28;20792;-66
2022/08/14 01:21:30;;;;;;;1999.90;999.90;;;22.30;33.20;;;;;;5012253;28;20461;-66
2022/08/14 01:23:55;;;;;;;1999.90;999.90;;;22.40;34.20;;;;;;5011882;28;20379;-66
2022/08/14 01:26:24;;;;;;;1999.90;999.90;;;22.30;34.20;;;;;;5011514;28;20444;-66
2022/08/14 01:28:54;;;;;;;1999.90;999.90;;;22.30;34.70;;;;;;5012043;28;20805;-66
2022/08/14 01:31:23;;;;;;;1999.90;999.90;;;22.30;34.70;;;;;;5011922;28;20374;-66
2022/08/14 01:33:52;;;;;;;1999.90;999.90;;;22.20;35.20;;;;;;5011839;28;20412;-66
2022/08/14 01:36:23;;;;;;;1999.90;999.90;;;22.20;36.00;;;;;;5011343;28;20421;-66
2022/08/14 01:38:50;;;;;;;1999.90;999.90;;;22.20;36.90;;;;;;5011731;28;20429;-66
2022/08/14 01:41:19;;;;;;;1999.90;999.90;;;22.10;37.20;;;;;;5012083;28;20411;-66
2022/08/14 01:43:50;;;;;;;1999.90;999.90;;;22.10;38.40;;;;;;5012003;28;20378;-66
2022/08/14 01:46:17;;;;;;;1999.90;999.90;;;22.10;39.50;;;;;;5013186;28;20390;-66
2022/08/14 01:48:44;;;;;;;1999.90;999.90;;;22.00;40.20;;;;;;5015199;28;20920;-66
2022/08/14 01:51:12;;;;;;;1999.90;999.90;;;21.90;40.60;;;;;;5015273;28;20461;-66
2022/08/14 01:53:43;;;;;;;1999.90;999.90;;;21.90;41.70;;;;;;5015251;28;20411;-66
2022/08/14 01:56:10;;;;;;;1999.90;999.90;;;21.90;42.90;;;;;;5014824;28;20457;-66
2022/08/14 01:58:36;;;;;;;1999.90;999.90;;;21.80;45.20;;;;;;5015116;28;20450;-66
2022/08/14 02:01:03;;;;;;;1999.90;999.90;;;21.70;46.90;;;;;;5015124;28;20442;-66
2022/08/14 02:03:31;;;;;;;1999.90;999.90;;;21.80;47.70;;;;;;5015106;28;20407;-66
2022/08/14 02:05:58;;;;;;;1999.90;999.90;;;21.80;49.00;;;;;;5014721;28;20427;-66
2022/08/14 02:08:26;;;;;;;1999.90;999.90;;;21.80;50.10;;;;;;5014917;28;20491;-66
2022/08/14 02:11:15;;;;;;;1999.90;999.90;;;21.70;52.10;;;;;;5014890;28;20461;-66
2022/08/14 02:13:39;;;;;;;1999.90;999.90;;;21.70;54.80;;;;;;5014824;28;20497;-64
2022/08/14 02:16:06;;;;;;;1999.90;999.90;;;21.70;55.00;;;;;;5014443;28;20417;-65
2022/08/14 02:18:32;;;;;;;1999.90;999.90;;;21.60;57.00;;;;;;5014745;28;20511;-66
2022/08/14 02:20:58;;;;;;;1999.90;999.90;;;21.60;59.40;;;;;;5015026;28;20936;-65
2022/08/14 02:23:23;;;;;;;1999.90;999.90;;;21.50;60.70;;;;;;5014723;28;20403;-66
2022/08/14 02:25:49;;;;;;;1999.90;999.90;;;21.60;63.20;;;;;;5014504;28;20199;-67
2022/08/14 02:28:15;;;;;;;1999.90;999.90;;;21.50;62.80;;;;;;5014467;28;20504;-65
2022/08/14 02:30:40;;;;;;;1999.90;999.90;;;21.50;65.20;;;;;;5014554;28;20181;-65
2022/08/14 02:33:06;;;;;;;1999.90;999.90;;;21.40;65.90;;;;;;5014509;28;20596;-65
2022/08/14 02:35:32;;;;;;;1999.90;999.90;;;21.40;65.10;;;;;;5014322;28;20176;-64
2022/08/14 02:37:58;;;;;;;1999.90;999.90;;;21.40;65.10;;;;;;5014125;28;20468;-65
2022/08/14 02:40:24;;;;;;;1999.90;999.90;;;21.40;68.00;;;;;;5014349;28;20411;-65
2022/08/14 02:42:50;;;;;;;1999.90;999.90;;;21.30;71.40;;;;;;5014591;28;20208;-65
2022/08/14 02:45:15;;;;;;;1999.90;999.90;;;21.40;71.50;;;;;;5014229;28;20868;-65
2022/08/14 02:47:41;;;;;;;1999.90;999.90;;;21.40;76.10;;;;;;5013974;28;20200;-66
2022/08/14 02:50:07;;;;;;;1999.90;999.90;;;21.40;82.50;;;;;;5014216;28;20180;-67
2022/08/14 02:52:33;;;;;;;1999.90;999.90;;;21.30;83.50;;;;;;5014524;28;20180;-66
2022/08/14 02:54:59;;;;;;;1999.90;999.90;;;21.30;85.00;;;;;;5014394;28;20390;-67
2022/08/14 02:57:26;;;;;;;1999.90;999.90;;;21.30;89.60;;;;;;5013350;28;20469;-67
2022/08/14 02:59:52;;;;;;;1999.90;999.90;;;21.30;90.20;;;;;;5014222;28;20171;-66
2022/08/14 03:02:18;;;;;;;1999.90;999.90;;;21.30;91.60;;;;;;5014049;28;20418;-65
2022/08/14 03:04:45;;;;;;;1999.90;999.90;;;21.40;91.60;;;;;;5014019;28;20403;-66
2022/08/14 03:07:11;;;;;;;1999.90;999.90;;;21.40;92.10;;;;;;4995932;28;20276;-65
2022/08/14 03:09:38;;;;;;;1999.90;999.90;;;21.40;92.70;;;;;;5013815;28;20458;-66
2022/08/14 03:12:04;;;;;;;1999.90;999.90;;;21.40;93.30;;;;;;5013894;28;20171;-66
2022/08/14 03:14:34;;;;;;;1999.90;999.90;;;21.40;94.30;;;;;;5013753;28;20767;-67
2022/08/14 03:17:00;;;;;;;1999.90;999.90;;;21.40;94.70;;;;;;5013261;28;20463;-66
2022/08/14 03:19:25;;;;;;;1999.90;999.90;;;21.40;94.60;;;;;;5013744;28;20814;-67
2022/08/14 03:21:52;;;;;;;1999.90;999.90;;;21.40;95.50;;;;;;5013596;28;20638;-66
2022/08/14 03:24:20;;;;;;;1999.90;999.90;;;21.40;96.00;;;;;;5013548;28;20172;-66
2022/08/14 03:26:46;;;;;;;1999.90;999.90;;;21.40;96.70;;;;;;5013152;28;20437;-66
2022/08/14 03:29:19;;;;;;;1999.90;999.90;;;21.40;97.20;;;;;;5013498;28;20415;-67
2022/08/14 03:31:48;;;;;;;1999.90;999.90;;;21.40;97.20;;;;;;5013491;28;20483;-67
2022/08/14 03:34:14;;;;;;;1999.90;999.90;;;21.40;96.90;;;;;;5013523;28;20422;-66
2022/08/14 03:36:41;;;;;;;1999.90;999.90;;;21.30;97.50;;;;;;5012796;28;20454;-66
2022/08/14 03:39:08;;;;;;;1999.90;999.90;;;21.20;98.10;;;;;;5013164;28;20494;-67
2022/08/14 03:41:35;;;;;;;1999.90;999.90;;;21.20;98.60;;;;;;5013131;28;20411;-66
2022/08/14 03:44:03;;;;;;;1999.90;999.90;;;21.20;98.70;;;;;;5013430;28;20406;-66
2022/08/14 03:46:32;;;;;;;1999.90;999.90;;;21.10;99.90;;;;;;5012830;28;20412;-66
2022/08/14 03:49:00;;;;;;;1999.90;999.90;;;21.00;99.90;;;;;;5013181;28;20790;-66
2022/08/14 03:51:27;;;;;;;1999.90;999.90;;;20.80;99.90;;;;;;5013040;28;20398;-66
2022/08/14 03:53:57;;;;;;;1999.90;999.90;;;20.70;99.90;;;;;;5013489;28;20517;-66
2022/08/14 03:56:25;;;;;;;1999.90;999.90;;;20.60;99.90;;;;;;5012674;28;20846;-66
2022/08/14 03:58:54;;;;;;;1999.90;999.90;;;20.60;99.90;;;;;;5012967;28;20469;-66
2022/08/14 04:01:22;;;;;;;1999.90;999.90;;;20.60;99.90;;;;;;5012862;28;20380;-66
2022/08/14 04:03:49;;;;;;;1999.90;999.90;;;20.50;99.90;;;;;;5012901;28;20384;-67
2022/08/14 04:06:15;;;;;;;1999.90;999.90;;;20.40;99.90;;;;;;5012508;28;20445;-66
2022/08/14 04:08:42;;;;;;;1999.90;999.90;;;20.40;99.90;;;;;;5012703;28;20534;-66
2022/08/14 04:11:09;;;;;;;1999.90;999.90;;;20.30;99.90;;;;;;5012848;28;20439;-67
2022/08/14 04:13:40;;;;;;;1999.90;999.90;;;20.30;99.90;;;;;;5012822;28;20812;-66
2022/08/14 04:16:12;;;;;;;1999.90;999.90;;;20.20;99.90;;;;;;5012184;28;20529;-65
2022/08/14 04:18:40;;;;;;;1999.90;999.90;;;20.10;99.90;;;;;;5012586;28;20583;-66
2022/08/14 04:21:06;;;;;;;1999.90;999.90;;;20.00;99.90;;;;;;5012563;28;20489;-66
2022/08/14 04:23:32;;;;;;;1999.90;999.90;;;20.10;99.90;;;;;;5012719;28;20433;-65
2022/08/14 04:26:02;;;;;;;1999.90;999.90;;;20.10;99.90;;;;;;5012272;28;20951;-65
2022/08/14 04:28:28;;;;;;;1999.90;999.90;;;20.10;99.90;;;;;;5012575;28;20254;-64
2022/08/14 04:30:54;;;;;;;1999.90;999.90;;;20.10;99.90;;;;;;5012481;28;20441;-65
2022/08/14 04:33:23;;;;;;;1999.90;999.90;;;20.00;99.90;;;;;;5012369;28;20467;-65
2022/08/14 04:35:50;;;;;;;1999.90;999.90;;;20.10;99.90;;;;;;5012144;28;20645;-66
2022/08/14 04:43:44;;;;;;;1999.90;999.90;;;20.20;99.90;;;;;;5012437;28;20492;-66
2022/08/14 04:46:14;;;;;;;1999.90;999.90;;;20.20;99.90;;;;;;5011846;28;20950;-66
2022/08/14 04:48:40;;;;;;;1999.90;999.90;;;20.20;99.90;;;;;;5012347;28;20546;-66
2022/08/14 04:51:09;;;;;;;1999.90;999.90;;;20.40;99.90;;;;;;5012366;28;20404;-66
2022/08/14 04:53:36;;;;;;;1999.90;999.90;;;20.50;99.90;;;;;;5012144;28;20417;-64
2022/08/14 04:56:04;;;;;;;1999.90;999.90;;;20.50;99.90;;;;;;5011840;28;20433;-65
2022/08/14 04:58:31;;;;;;;1999.90;999.90;;;20.50;99.90;;;;;;5012022;28;20990;-64
2022/08/14 05:00:58;;;;;;;1999.90;999.90;;;20.50;99.90;;;;;;5012142;28;20399;-64
2022/08/14 05:03:26;;;;;;;1999.90;999.90;;;20.60;99.90;;;;;;5012137;28;20406;-65
2022/08/14 05:05:54;;;;;;;1999.90;999.90;;;20.60;99.90;;;;;;5011962;28;20406;-66
2022/08/14 05:08:21;;;;;;;1999.90;999.90;;;20.70;99.90;;;;;;5011830;28;20413;-66
2022/08/14 05:10:51;;;;;;;1999.90;999.90;;;20.80;99.90;;;;;;5012077;28;20784;-65
2022/08/14 05:13:19;;;;;;;1999.90;999.90;;;20.90;99.90;;;;;;5012025;28;20414;-66
2022/08/14 05:15:45;;;;;;;1999.90;999.90;;;20.80;99.90;;;;;;5011882;28;20411;-64
2022/08/14 05:18:19;;;;;;;1999.90;999.90;;;20.80;99.90;;;;;;5011800;28;20458;-64
2022/08/14 05:20:47;;;;;;;1999.90;999.90;;;20.90;99.90;;;;;;5012992;28;20504;-65
2022/08/14 05:23:17;;;;;;;1999.90;999.90;;;21.00;99.90;;;;;;5015810;28;20405;-65
2022/08/14 05:25:43;;;;;;;1999.90;999.90;;;21.10;99.90;;;;;;5015652;28;20408;-65
2022/08/14 05:28:11;;;;;;;1999.90;999.90;;;21.20;99.90;;;;;;5015508;28;20786;-65
2022/08/14 05:30:38;;;;;;;1999.90;999.90;;;21.20;99.90;;;;;;5015729;28;20786;-65
2022/08/14 05:33:04;;;;;;;1999.90;999.90;;;21.30;99.90;;;;;;5015692;28;20833;-64
2022/08/14 05:35:31;;;;;;;1999.90;999.90;;;21.40;99.90;;;;;;5015513;28;20496;-65
2022/08/14 05:37:58;;;;;;;1999.90;999.90;;;21.40;99.90;;;;;;5015163;28;20454;-65
2022/08/14 05:40:25;;;;;;;1999.90;999.90;;;21.40;99.90;;;;;;5015409;28;20419;-66
2022/08/14 05:42:51;;;;;;;1999.90;999.90;;;21.50;99.90;;;;;;5015561;28;20954;-65
2022/08/14 05:45:17;;;;;;;1999.90;999.90;;;21.50;99.90;;;;;;5015418;28;20442;-66
2022/08/14 05:47:43;;;;;;;1999.90;999.90;;;21.60;99.90;;;;;;5015088;28;20192;-66
2022/08/14 05:50:11;;;;;;;1999.90;999.90;;;21.70;99.90;;;;;;5015392;28;20497;-66
2022/08/14 05:52:36;;;;;;;1999.90;999.90;;;21.70;99.90;;;;;;5015298;28;20551;-66
2022/08/14 05:55:04;;;;;;;1999.90;999.90;;;21.70;99.90;;;;;;5015317;28;20415;-67
2022/08/14 05:57:29;;;;;;;1999.90;999.90;;;21.70;99.90;;;;;;5014879;28;20218;-67
2022/08/14 05:59:55;;;;;;;1999.90;999.90;;;21.90;99.90;;;;;;5015230;28;20378;-68
2022/08/14 06:02:21;;;;;;;1999.90;999.90;;;21.90;99.90;;;;;;5015200;28;20185;-67
2022/08/14 06:04:47;;;;;;;1999.90;999.90;;;21.90;99.90;;;;;;5015117;28;20248;-67
2022/08/14 06:07:13;;;;;;;1999.90;999.90;;;22.10;99.90;;;;;;5013991;28;20254;-67
2022/08/14 06:09:40;;;;;;;1999.90;999.90;;;22.20;99.90;;;;;;5014954;28;20412;-68
2022/08/14 06:12:09;;;;;;;1999.90;999.90;;;22.20;99.90;;;;;;5014830;28;20415;-67
2022/08/14 06:14:38;;;;;;;1999.90;999.90;;;22.30;99.90;;;;;;5014886;28;20776;-66
2022/08/14 06:17:04;;;;;;;1999.90;999.90;;;22.40;99.90;;;;;;5014192;28;20459;-66
2022/08/14 06:19:30;;;;;;;1999.90;999.90;;;22.40;99.90;;;;;;5014713;28;20389;-66
2022/08/14 06:21:55;;;;;;;1999.90;999.90;;;22.50;99.90;;;;;;5014669;28;20180;-68
2022/08/14 06:24:21;;;;;;;1999.90;999.90;;;22.70;99.90;;;;;;5014675;28;20171;-66
2022/08/14 06:26:47;;;;;;;1999.90;999.90;;;22.80;99.90;;;;;;5014350;28;20199;-66
2022/08/14 06:29:12;;;;;;;1999.90;999.90;;;22.90;99.90;;;;;;5014600;28;20177;-66
2022/08/14 06:31:38;;;;;;;1999.90;999.90;;;23.00;99.90;;;;;;5013994;28;20222;-66
2022/08/14 06:34:03;;;;;;;1999.90;999.90;;;23.10;99.90;;;;;;5013900;28;20170;-66
2022/08/14 06:36:29;;;;;;;1999.90;999.90;;;23.10;99.90;;;;;;5014025;28;20247;-66
2022/08/14 06:38:55;;;;;;;1999.90;999.90;;;23.20;99.90;;;;;;5014359;28;20197;-66
2022/08/14 06:41:22;;;;;;;1999.90;999.90;;;23.30;99.90;;;;;;5014411;28;20169;-67
2022/08/14 06:43:47;;;;;;;1999.90;999.90;;;23.30;99.90;;;;;;5014386;28;20379;-66
2022/08/14 06:46:13;;;;;;;1999.90;999.90;;;23.40;99.90;;;;;;5013989;28;20457;-66
2022/08/14 06:48:39;;;;;;;1999.90;999.90;;;23.60;99.90;;;;;;5014308;28;20399;-67
2022/08/14 06:51:04;;;;;;;1999.90;999.90;;;23.70;99.90;;;;;;5014142;28;20527;-67
2022/08/14 06:53:30;;;;;;;1999.90;999.90;;;23.80;99.90;;;;;;5014236;28;20200;-67
2022/08/14 06:55:56;;;;;;;1999.90;999.90;;;23.80;99.90;;;;;;5014085;28;20188;-65
2022/08/14 06:58:22;;;;;;;1999.90;999.90;;;23.90;99.90;;;;;;5014202;28;20678;-66
2022/08/14 07:06:16;;;;;;;1999.90;999.90;;;24.30;99.90;;;;;;5013869;28;20490;-67
2022/08/14 07:08:43;;;;;;;1999.90;999.90;;;24.40;99.90;;;;;;5013885;28;20466;-65
2022/08/14 07:11:10;;;;;;;1999.90;999.90;;;24.60;99.90;;;;;;5013924;28;20219;-65
2022/08/14 07:13:35;;;;;;;1999.90;999.90;;;24.60;99.90;;;;;;5013791;28;20382;-66
2022/08/14 07:16:01;;;;;;;1999.90;999.90;;;24.80;99.90;;;;;;5013396;28;20428;-66
2022/08/14 07:18:29;;;;;;;1999.90;999.90;;;24.90;99.90;;;;;;5013539;28;20232;-66
2022/08/14 07:20:56;;;;;;;1999.90;999.90;;;25.00;99.90;;;;;;5013772;28;20204;-68
2022/08/14 07:23:22;;;;;;;1999.90;999.90;;;25.10;99.90;;;;;;5013592;28;20396;-67
2022/08/14 07:25:50;;;;;;;1999.90;999.90;;;25.00;99.90;;;;;;5013453;28;20432;-66
2022/08/14 07:28:25;;;;;;;1999.90;999.90;;;25.00;99.90;;;;;;5013214;28;20473;-66
2022/08/14 07:30:56;;;;;;;1999.90;999.90;;;25.10;99.90;;;;;;5013355;28;20386;-67
2022/08/14 07:33:24;;;;;;;1999.90;999.90;;;25.20;99.90;;;;;;5013283;28;20416;-67
2022/08/14 07:35:49;;;;;;;1999.90;999.90;;;25.20;99.90;;;;;;5013099;28;20460;-67
2022/08/14 07:38:20;;;;;;;1999.90;999.90;;;25.30;99.90;;;;;;5013033;28;20461;-67
2022/08/14 07:40:47;;;;;;;1999.90;999.90;;;25.40;99.90;;;;;;5013260;28;20160;-67
2022/08/14 07:43:12;;;;;;;1999.90;999.90;;;25.50;99.90;;;;;;5012944;28;20454;-66
2022/08/14 07:45:39;;;;;;;1999.90;999.90;;;25.60;99.90;;;;;;5012976;28;20951;-67
2022/08/14 07:48:05;;;;;;;1999.90;999.90;;;25.70;99.90;;;;;;5012780;28;20250;-67
2022/08/14 07:50:31;;;;;;;1999.90;999.90;;;25.80;99.90;;;;;;5013326;28;20378;-67
2022/08/14 07:52:58;;;;;;;1999.90;999.90;;;25.90;99.90;;;;;;5013065;28;20379;-67
2022/08/14 07:55:25;;;;;;;1999.90;999.90;;;26.10;99.90;;;;;;5012946;28;20503;-65
2022/08/14 07:57:51;;;;;;;1999.90;999.90;;;26.10;99.90;;;;;;5012571;28;20481;-66
2022/08/14 08:00:22;;;;;;;1999.90;999.90;;;26.20;99.90;;;;;;5012928;28;20423;-65
2022/08/14 08:02:50;;;;;;;1999.90;999.90;;;26.30;99.90;;;;;;5012880;28;20169;-65
2022/08/14 08:05:17;;;;;;;1999.90;999.90;;;26.40;99.90;;;;;;5012833;28;20393;-65
2022/08/14 08:07:45;;;;;;;1999.90;999.90;;;26.50;99.20;;;;;;5012415;28;20449;-65
2022/08/14 08:10:32;;;;;;;1999.90;999.90;;;26.50;98.00;;;;;;5012757;28;20381;-67
2022/08/14 08:13:14;;;;;;;1999.90;999.90;;;26.60;97.70;;;;;;5013060;28;20408;-67
2022/08/14 08:15:45;;;;;;;1999.90;999.90;;;26.60;97.00;;;;;;5012494;28;20424;-67
2022/08/14 08:18:14;;;;;;;1999.90;999.90;;;26.70;97.40;;;;;;5012406;28;20604;-67
2022/08/14 08:20:45;;;;;;;1999.90;999.90;;;26.80;96.70;;;;;;5012627;28;20415;-67
2022/08/14 08:23:12;;;;;;;1999.90;999.90;;;26.90;96.60;;;;;;5012771;28;20793;-67
2022/08/14 08:25:41;;;;;;;1999.90;999.90;;;27.00;95.90;;;;;;5012599;28;20415;-67
2022/08/14 08:28:08;;;;;;;1999.90;999.90;;;27.00;95.70;;;;;;5012447;28;20937;-67
2022/08/14 08:30:38;;;;;;;1999.90;999.90;;;27.20;94.50;;;;;;5012511;28;20412;-65
2022/08/14 08:33:05;;;;;;;1999.90;999.90;;;27.30;92.30;;;;;;5012395;28;20410;-68
2022/08/14 08:35:34;;;;;;;1999.90;999.90;;;27.40;91.60;;;;;;5012499;28;20422;-67
2022/08/14 08:38:04;;;;;;;1999.90;999.90;;;27.40;92.00;;;;;;5012348;28;20546;-68
2022/08/14 08:40:36;;;;;;;1999.90;999.90;;;27.50;90.80;;;;;;5012478;28;20855;-68
2022/08/14 08:43:15;;;;;;;1999.90;999.90;;;27.60;90.80;;;;;;5012196;28;20407;-67
2022/08/14 08:45:41;;;;;;;1999.90;999.90;;;27.80;88.00;;;;;;5011893;28;20382;-66
2022/08/14 08:48:07;;;;;;;1999.90;999.90;;;27.90;88.00;;;;;;5011651;28;20419;-65
2022/08/14 08:50:36;;;;;;;1999.90;999.90;;;28.00;86.50;;;;;;5011732;28;20995;-67
2022/08/14 08:53:05;;;;;;;1999.90;999.90;;;28.10;84.10;;;;;;5012279;28;20209;-67
2022/08/14 08:55:39;;;;;;;1999.90;999.90;;;28.30;82.20;;;;;;5010901;28;20487;-67
2022/08/14 08:58:16;;;;;;;1999.90;999.90;;;28.40;78.10;;;;;;5012723;28;20473;-68
2022/08/14 09:00:48;;;;;;;1999.90;999.90;;;28.50;77.10;;;;;;5021291;28;20392;-68
2022/08/14 09:03:17;;;;;;;1999.90;999.90;;;28.60;72.60;;;;;;5014342;28;20549;-68
2022/08/14 09:06:04;;;;;;;1999.90;999.90;;;28.70;73.40;;;;;;5011643;28;20396;-68
2022/08/14 09:08:32;;;;;;;1999.90;999.90;;;28.90;74.00;;;;;;5011476;28;20404;-67
2022/08/14 09:11:03;;;;;;;1999.90;999.90;;;28.90;71.50;;;;;;5023627;28;20423;-68
2022/08/14 09:13:30;;;;;;;1999.90;999.90;;;29.00;70.40;;;;;;5012867;28;20408;-66
2022/08/14 09:15:56;;;;;;;1999.90;999.90;;;29.10;69.20;;;;;;5013104;28;20435;-69
2022/08/14 09:18:22;;;;;;;1999.90;999.90;;;29.20;64.40;;;;;;5011227;28;20459;-67
2022/08/14 09:20:51;;;;;;;1999.90;999.90;;;29.30;60.30;;;;;;5010732;28;20437;-67
2022/08/14 09:23:17;;;;;;;1999.90;999.90;;;29.50;64.80;;;;;;5010685;28;20400;-66
2022/08/14 09:25:46;;;;;;;1999.90;999.90;;;29.60;63.60;;;;;;5010479;28;20418;-67
2022/08/14 09:28:13;;;;;;;1999.90;999.90;;;29.70;62.00;;;;;;5010153;28;20173;-67
2022/08/14 09:30:48;;;;;;;1999.90;999.90;;;29.80;58.30;;;;;;5011077;28;20474;-67
2022/08/14 09:33:40;;;;;;;1999.90;999.90;;;29.90;57.40;;;;;;5011077;28;20403;-66
2022/08/14 09:36:27;;;;;;;1999.90;999.90;;;30.00;55.70;;;;;;5010138;28;20443;-66
2022/08/14 09:39:22;;;;;;;1999.90;999.90;;;30.10;53.50;;;;;;5010977;28;20859;-64
2022/08/14 09:42:27;;;;;;;1999.90;999.90;;;30.30;50.10;;;;;;5010490;28;20456;-65
2022/08/14 09:45:03;;;;;;;1999.90;999.90;;;30.50;45.60;;;;;;5010594;28;20422;-65
2022/08/14 09:47:44;;;;;;;1999.90;999.90;;;30.70;44.20;;;;;;5010742;28;20427;-65
2022/08/14 09:50:28;;;;;;;1999.90;999.90;;;30.70;43.00;;;;;;5010481;28;20768;-65
2022/08/14 09:53:05;;;;;;;1999.90;999.90;;;30.80;42.80;;;;;;5010866;28;20415;-64
2022/08/14 09:55:34;;;;;;;1999.90;999.90;;;30.80;39.80;;;;;;5011068;28;20922;-65
2022/08/14 09:58:10;;;;;;;1999.90;999.90;;;31.00;37.50;;;;;;5010115;28;20479;-65
2022/08/14 10:00:43;;;;;;;1999.90;999.90;;;31.10;38.30;;;;;;5012059;28;20446;-66
2022/08/14 10:03:09;;;;;;;1999.90;999.90;;;31.00;37.20;;;;;;5011016;28;20399;-67
2022/08/14 10:05:36;;;;;;;1999.90;999.90;;;31.10;33.10;;;;;;5011419;28;20772;-66
2022/08/14 10:08:15;;;;;;;1999.90;999.90;;;31.20;31.70;;;;;;5024252;28;20173;-68
2022/08/14 10:10:40;;;;;;;1999.90;999.90;;;31.30;33.80;;;;;;5000734;28;20567;-67
2022/08/14 10:13:19;;;;;;;1999.90;999.90;;;31.60;33.30;;;;;;5014479;28;20443;-66
2022/08/14 10:15:48;;;;;;;1999.90;999.90;;;31.80;31.50;;;;;;5014335;28;20173;-66
2022/08/14 10:18:16;;;;;;;1999.90;999.90;;;31.80;27.80;;;;;;5015119;28;20461;-67
2022/08/14 10:20:56;;;;;;;1999.90;999.90;;;31.90;29.10;;;;;;5016561;28;20388;-67
2022/08/14 10:23:24;;;;;;;1999.90;999.90;;;32.00;30.40;;;;;;5016320;28;20412;-67
2022/08/14 10:25:56;;;;;;;1999.90;999.90;;;32.20;30.00;;;;;;5015732;28;20487;-66
2022/08/14 10:28:22;;;;;;;1999.90;999.90;;;32.50;29.90;;;;;;5015803;28;20832;-67
2022/08/14 10:30:53;;;;;;;1999.90;999.90;;;32.60;30.20;;;;;;5015993;28;20542;-67
2022/08/14 10:33:31;;;;;;;1999.90;999.90;;;32.70;30.20;;;;;;5015479;28;20404;-67
2022/08/14 10:36:01;;;;;;;1999.90;999.90;;;32.90;30.00;;;;;;5015430;28;20435;-65
2022/08/14 10:38:32;;;;;;;1999.90;999.90;;;33.00;27.00;;;;;;5016229;28;20447;-68
2022/08/14 10:41:13;;;;;;;1999.90;999.90;;;33.20;26.30;;;;;;5004374;28;20828;-68
2022/08/14 10:43:41;;;;;;;1999.90;999.90;;;33.20;26.60;;;;;;4995715;28;20459;-68
2022/08/14 10:46:17;;;;;;;1999.90;999.90;;;33.20;24.80;;;;;;4995465;28;20421;-67
2022/08/14 10:49:03;;;;;;;1999.90;999.90;;;33.30;25.40;;;;;;4995425;28;20404;-67
2022/08/14 10:51:31;;;;;;;1999.90;999.90;;;33.50;25.20;;;;;;4994913;28;20560;-68
2022/08/14 10:53:57;;;;;;;1999.90;999.90;;;33.60;24.80;;;;;;4995193;28;20409;-68
2022/08/14 10:56:32;;;;;;;1999.90;999.90;;;33.70;25.10;;;;;;4994684;28;20904;-67
2022/08/14 10:59:03;;;;;;;1999.90;999.90;;;33.80;24.10;;;;;;4994629;28;20451;-68
2022/08/14 11:01:37;;;;;;;1999.90;999.90;;;33.90;24.30;;;;;;4995374;28;20439;-67
2022/08/14 11:04:04;;;;;;;1999.90;999.90;;;34.00;23.00;;;;;;4994731;28;20941;-67
2022/08/14 11:06:30;;;;;;;1999.90;999.90;;;34.20;22.50;;;;;;4993710;28;20432;-67
2022/08/14 11:08:56;;;;;;;1999.90;999.90;;;34.20;22.30;;;;;;4993991;28;20405;-67
2022/08/14 11:11:25;;;;;;;1999.90;999.90;;;34.30;21.70;;;;;;4993988;28;20397;-67
2022/08/14 11:13:56;;;;;;;1999.90;999.90;;;34.20;21.20;;;;;;4993624;28;20408;-67
2022/08/14 11:16:23;;;;;;;1999.90;999.90;;;34.30;21.10;;;;;;4993519;28;20432;-67
2022/08/14 11:18:50;;;;;;;1999.90;999.90;;;34.30;20.30;;;;;;4993097;28;21165;-67
2022/08/14 11:21:19;;;;;;;1999.90;999.90;;;34.40;20.40;;;;;;4993786;28;20404;-67
2022/08/14 11:23:48;;;;;;;1999.90;999.90;;;34.20;19.60;;;;;;4993411;28;20401;-66
2022/08/14 11:26:19;;;;;;;1999.90;999.90;;;34.20;20.60;;;;;;4993191;28;20451;-67
2022/08/14 11:28:47;;;;;;;1999.90;999.90;;;34.30;20.40;;;;;;4993790;28;20452;-67
2022/08/14 11:31:14;;;;;;;1999.90;999.90;;;34.40;19.80;;;;;;4993615;28;20397;-66
2022/08/14 11:33:40;;;;;;;1999.90;999.90;;;34.60;19.80;;;;;;4993360;28;20411;-67
2022/08/14 11:36:08;;;;;;;1999.90;999.90;;;34.90;18.60;;;;;;4992755;28;20448;-66
2022/08/14 11:38:44;;;;;;;1999.90;999.90;;;35.10;18.50;;;;;;4992258;28;20540;-65
2022/08/14 11:41:11;;;;;;;1999.90;999.90;;;35.30;17.60;;;;;;4992562;28;20397;-65
2022/08/14 11:43:39;;;;;;;1999.90;999.90;;;35.40;18.20;;;;;;4992129;28;20496;-69
2022/08/14 11:46:05;;;;;;;1999.90;999.90;;;35.40;17.20;;;;;;4992006;28;20420;-65
2022/08/14 11:48:31;;;;;;;1999.90;999.90;;;35.50;17.50;;;;;;4992419;28;20437;-65
2022/08/14 11:50:56;;;;;;;1999.90;999.90;;;35.60;16.70;;;;;;4992315;28;20440;-65
2022/08/14 11:53:27;;;;;;;1999.90;999.90;;;35.70;16.20;;;;;;4992134;28;20208;-65
2022/08/14 11:56:04;;;;;;;1999.90;999.90;;;35.80;16.80;;;;;;4992206;28;20216;-66
2022/08/14 11:58:36;;;;;;;1999.90;999.90;;;36.10;16.50;;;;;;4992056;28;20452;-68
2022/08/14 12:01:05;;;;;;;1999.90;999.90;;;36.50;16.30;;;;;;4992247;28;20907;-66
2022/08/14 12:03:49;;;;;;;1999.90;999.90;;;37.20;15.70;;;;;;4991938;28;20413;-66
2022/08/14 12:06:17;;;;;;;1999.90;999.90;;;38.00;14.20;;;;;;4991827;28;20794;-66
2022/08/14 12:08:45;;;;;;;1999.90;999.90;;;38.70;13.70;;;;;;4992078;28;20436;-65
2022/08/14 12:11:12;;;;;;;1999.90;999.90;;;39.60;12.40;;;;;;4992043;28;20416;-66
2022/08/14 12:13:39;;;;;;;1999.90;999.90;;;40.30;11.30;;;;;;4991888;28;20401;-69
2022/08/14 12:16:08;;;;;;;1999.90;999.90;;;41.00;10.00;;;;;;4991522;28;20965;-65
2022/08/14 12:18:35;;;;;;;1999.90;999.90;;;41.60;9.40;;;;;;4991683;28;21038;-66
2022/08/14 12:21:18;;;;;;;1999.90;999.90;;;42.20;8.50;;;;;;4992190;28;20408;-66